createdAt,value
2022-10-18T00:02:17.636Z,18.80
2022-10-18T00:04:44.277Z,18.80
2022-10-18T00:07:10.871Z,18.80
2022-10-18T00:09:37.881Z,18.70
2022-10-18T00:12:04.524Z,18.70
2022-10-18T00:14:31.117Z,18.60
2022-10-18T00:16:57.856Z,18.60
2022-10-18T00:19:27.149Z,18.60
2022-10-18T00:21:58.318Z,18.60
2022-10-18T00:24:27.470Z,18.60
2022-10-18T00:26:57.293Z,18.60
2022-10-18T00:29:26.218Z,18.50
2022-10-18T00:31:52.812Z,18.60
2022-10-18T00:34:19.429Z,18.50
2022-10-18T00:36:46.013Z,18.50
2022-10-18T00:39:16.987Z,18.50
2022-10-18T00:41:44.313Z,18.50
2022-10-18T00:44:10.923Z,18.50
2022-10-18T00:46:43.125Z,18.50
2022-10-18T00:49:17.446Z,19.00
2022-10-18T00:52:04.954Z,18.50
2022-10-18T00:54:33.662Z,18.50
2022-10-18T00:57:01.117Z,18.40
2022-10-18T00:59:28.242Z,18.40
2022-10-18T01:01:55.000Z,18.40
2022-10-18T01:04:22.482Z,18.40
2022-10-18T01:07:22.849Z,18.40
2022-10-18T01:10:11.077Z,18.40
2022-10-18T01:13:14.392Z,18.30
2022-10-18T01:15:49.021Z,18.30
2022-10-18T01:18:24.977Z,18.30
2022-10-18T01:21:00.591Z,18.20
2022-10-18T01:23:30.158Z,18.30
2022-10-18T01:26:02.871Z,18.30
2022-10-18T01:28:58.512Z,18.30
2022-10-18T01:31:35.071Z,18.30
2022-10-18T01:34:05.646Z,18.30
2022-10-18T01:36:44.574Z,18.30
2022-10-18T01:39:21.912Z,18.30
2022-10-18T01:41:49.394Z,18.30
2022-10-18T01:44:20.029Z,18.20
2022-10-18T01:46:47.242Z,18.20
2022-10-18T01:49:14.383Z,18.20
2022-10-18T01:51:40.958Z,18.30
2022-10-18T01:54:07.642Z,18.30
2022-10-18T01:57:00.086Z,18.20
2022-10-18T01:59:44.793Z,18.20
2022-10-18T02:02:39.180Z,18.20
2022-10-18T02:05:11.609Z,18.20
2022-10-18T02:08:18.948Z,18.10
2022-10-18T02:10:53.186Z,18.20
2022-10-18T02:13:21.689Z,18.20
2022-10-18T02:15:50.829Z,18.20
2022-10-18T02:18:28.628Z,18.20
2022-10-18T02:20:55.323Z,18.20
2022-10-18T02:23:26.080Z,18.20
2022-10-18T02:25:53.473Z,18.10
2022-10-18T02:28:20.571Z,18.10
2022-10-18T02:30:51.836Z,18.10
2022-10-18T02:33:21.682Z,18.10
2022-10-18T02:35:52.637Z,18.10
2022-10-18T02:38:20.619Z,18.10
2022-10-18T02:40:47.223Z,18.10
2022-10-18T02:43:14.315Z,18.10
2022-10-18T02:45:41.027Z,18.10
2022-10-18T02:48:07.918Z,18.20
2022-10-18T02:50:34.501Z,18.10
2022-10-18T02:53:01.170Z,18.10
2022-10-18T02:57:55.715Z,18.10
2022-10-18T03:00:22.426Z,18.10
2022-10-18T03:02:49.175Z,18.40
2022-10-18T03:05:15.871Z,18.00
2022-10-18T03:07:42.468Z,18.10
2022-10-18T03:10:09.232Z,18.10
2022-10-18T03:12:35.846Z,18.00
2022-10-18T03:15:02.737Z,18.10
2022-10-18T03:17:29.660Z,18.10
2022-10-18T03:19:56.460Z,18.10
2022-10-18T03:22:25.153Z,18.10
2022-10-18T03:24:51.785Z,18.00
2022-10-18T03:27:18.505Z,18.00
2022-10-18T03:29:45.110Z,18.00
2022-10-18T03:32:11.720Z,18.00
2022-10-18T03:34:38.339Z,18.00
2022-10-18T03:37:05.549Z,18.10
2022-10-18T03:39:32.354Z,18.00
2022-10-18T03:41:58.960Z,18.00
2022-10-18T03:44:25.554Z,18.00
2022-10-18T03:46:52.183Z,18.10
2022-10-18T03:49:19.132Z,18.10
2022-10-18T03:51:45.748Z,18.00
2022-10-18T03:54:12.372Z,18.00
2022-10-18T03:56:38.961Z,18.00
2022-10-18T03:59:05.609Z,18.00
2022-10-18T04:01:32.301Z,18.00
2022-10-18T04:03:59.023Z,18.00
2022-10-18T04:06:25.918Z,18.00
2022-10-18T04:08:52.560Z,18.00
2022-10-18T04:11:19.245Z,17.90
2022-10-18T04:13:46.558Z,17.90
2022-10-18T04:16:13.168Z,18.00
2022-10-18T04:18:39.800Z,17.90
2022-10-18T04:21:06.554Z,18.00
2022-10-18T04:23:36.321Z,18.00
2022-10-18T04:26:06.049Z,17.90
2022-10-18T04:28:33.804Z,17.90
2022-10-18T04:31:00.557Z,18.00
2022-10-18T04:33:27.241Z,18.00
2022-10-18T04:35:53.905Z,17.90
2022-10-18T04:38:20.524Z,17.90
2022-10-18T04:40:47.156Z,17.90
2022-10-18T04:45:54.908Z,17.90
2022-10-18T04:48:21.594Z,17.80
2022-10-18T04:50:49.725Z,17.90
2022-10-18T04:53:17.004Z,17.90
2022-10-18T04:55:48.942Z,17.90
2022-10-18T04:58:16.728Z,17.80
2022-10-18T05:00:43.591Z,17.90
2022-10-18T05:03:14.173Z,17.80
2022-10-18T05:06:00.942Z,17.90
2022-10-18T05:08:29.034Z,17.80
2022-10-18T05:10:55.799Z,17.80
2022-10-18T05:13:22.461Z,17.80
2022-10-18T05:15:50.567Z,17.70
2022-10-18T05:18:17.536Z,17.70
2022-10-18T05:20:44.158Z,17.70
2022-10-18T05:23:11.169Z,17.80
2022-10-18T05:25:41.939Z,17.80
2022-10-18T05:28:21.230Z,17.70
2022-10-18T05:30:55.875Z,17.70
2022-10-18T05:33:22.525Z,17.70
2022-10-18T05:35:49.515Z,17.60
2022-10-18T05:38:16.214Z,17.70
2022-10-18T05:40:43.103Z,17.70
2022-10-18T05:43:09.778Z,17.70
2022-10-18T05:45:36.387Z,17.60
2022-10-18T05:48:05.135Z,17.60
2022-10-18T05:50:35.485Z,17.60
2022-10-18T05:53:11.951Z,17.90
2022-10-18T05:55:46.761Z,17.60
2022-10-18T05:58:29.214Z,17.60
2022-10-18T06:01:02.776Z,17.60
2022-10-18T06:03:36.713Z,17.60
2022-10-18T06:06:11.704Z,18.20
2022-10-18T06:08:40.941Z,17.50
2022-10-18T06:11:14.086Z,17.60
2022-10-18T06:14:14.038Z,17.50
2022-10-18T06:16:43.712Z,17.50
2022-10-18T06:19:22.146Z,17.50
2022-10-18T06:21:54.644Z,17.50
2022-10-18T06:24:28.896Z,17.50
2022-10-18T06:27:04.024Z,17.40
2022-10-18T06:29:34.179Z,17.40
2022-10-18T06:32:02.272Z,17.40
2022-10-18T06:34:28.971Z,17.40
2022-10-18T06:36:56.708Z,17.40
2022-10-18T06:39:25.680Z,17.40
2022-10-18T06:41:52.749Z,17.40
2022-10-18T06:44:20.107Z,19.60
2022-10-18T06:46:47.946Z,17.60
2022-10-18T06:49:18.335Z,17.50
2022-10-18T06:51:46.161Z,18.40
2022-10-18T06:54:17.845Z,19.40
2022-10-18T06:56:45.340Z,19.70
2022-10-18T06:59:12.124Z,17.50
2022-10-18T07:01:38.982Z,17.50
2022-10-18T07:04:05.755Z,17.50
2022-10-18T07:06:32.373Z,17.40
2022-10-18T07:08:59.324Z,17.50
2022-10-18T07:11:27.168Z,17.40
2022-10-18T07:13:55.489Z,17.40
2022-10-18T07:16:22.361Z,17.40
2022-10-18T07:18:51.128Z,18.10
2022-10-18T07:21:23.620Z,18.00
2022-10-18T07:23:51.029Z,17.50
2022-10-18T07:26:21.534Z,17.60
2022-10-18T07:28:51.126Z,19.70
2022-10-18T07:31:18.081Z,17.50
2022-10-18T07:33:44.951Z,17.50
2022-10-18T07:36:12.506Z,17.50
2022-10-18T07:38:39.511Z,17.40
2022-10-18T07:41:08.221Z,17.50
2022-10-18T07:43:35.933Z,17.50
2022-10-18T07:46:05.418Z,17.50
2022-10-18T07:48:32.147Z,17.60
2022-10-18T07:51:00.666Z,17.70
2022-10-18T07:53:28.368Z,17.70
2022-10-18T07:56:04.703Z,17.60
2022-10-18T07:58:34.601Z,17.70
2022-10-18T08:01:05.478Z,17.70
2022-10-18T08:03:32.649Z,17.80
2022-10-18T08:05:59.505Z,17.70
2022-10-18T08:08:26.923Z,17.80
2022-10-18T08:10:53.597Z,17.80
2022-10-18T08:13:20.434Z,17.80
2022-10-18T08:15:47.426Z,17.80
2022-10-18T08:18:14.340Z,17.90
2022-10-18T08:20:45.170Z,17.90
2022-10-18T08:23:12.304Z,17.90
2022-10-18T08:25:39.095Z,18.00
2022-10-18T08:28:07.042Z,18.00
2022-10-18T08:30:34.853Z,18.00
2022-10-18T08:33:02.309Z,18.00
2022-10-18T08:35:29.114Z,18.10
2022-10-18T08:37:55.914Z,18.10
2022-10-18T08:40:22.812Z,18.10
2022-10-18T08:43:01.266Z,18.10
2022-10-18T08:45:41.970Z,18.20
2022-10-18T08:48:21.929Z,18.20
2022-10-18T08:50:49.034Z,18.30
2022-10-18T08:53:32.406Z,18.30
2022-10-18T08:56:05.794Z,18.40
2022-10-18T08:58:33.740Z,18.40
2022-10-18T09:01:31.586Z,18.50
2022-10-18T09:04:24.259Z,18.40
2022-10-18T09:06:59.876Z,18.50
2022-10-18T09:09:42.389Z,18.50
2022-10-18T09:12:24.180Z,18.60
2022-10-18T09:15:04.251Z,18.60
2022-10-18T09:17:46.944Z,18.80
2022-10-18T09:20:19.861Z,18.80
2022-10-18T09:23:05.775Z,18.90
2022-10-18T09:25:37.404Z,18.90
2022-10-18T09:28:22.585Z,18.90
2022-10-18T09:31:00.400Z,19.00
2022-10-18T09:33:39.570Z,19.10
2022-10-18T09:36:08.472Z,19.20
2022-10-18T09:38:44.931Z,19.20
2022-10-18T09:41:28.052Z,19.30
2022-10-18T09:44:09.463Z,19.30
2022-10-18T09:46:45.829Z,19.40
2022-10-18T09:49:18.622Z,19.40
2022-10-18T09:51:46.066Z,19.50
2022-10-18T09:54:26.498Z,19.60
2022-10-18T09:57:02.807Z,19.60
2022-10-18T09:59:37.302Z,19.70
2022-10-18T10:02:04.769Z,19.80
2022-10-18T10:04:31.677Z,19.80
2022-10-18T10:07:01.257Z,19.80
2022-10-18T10:09:48.546Z,19.90
2022-10-18T10:12:26.889Z,20.00
2022-10-18T10:14:53.680Z,20.10
2022-10-18T10:17:29.747Z,20.20
2022-10-18T10:20:02.084Z,20.20
2022-10-18T10:22:36.653Z,20.30
2022-10-18T10:25:03.850Z,20.30
2022-10-18T10:27:35.134Z,20.40
2022-10-18T10:30:07.119Z,20.40
2022-10-18T10:32:47.179Z,20.50
2022-10-18T10:38:28.353Z,20.60
2022-10-18T10:40:55.931Z,20.70
2022-10-18T10:43:38.933Z,20.70
2022-10-18T10:46:09.641Z,20.80
2022-10-18T10:48:42.285Z,20.90
2022-10-18T10:51:12.982Z,21.00
2022-10-18T10:53:42.839Z,21.00
2022-10-18T10:56:35.474Z,21.10
2022-10-18T10:59:24.042Z,21.20
2022-10-18T11:02:10.857Z,21.30
2022-10-18T11:04:38.581Z,21.30
2022-10-18T11:07:32.747Z,21.40
2022-10-18T11:10:09.351Z,21.60
2022-10-18T11:12:45.877Z,21.60
2022-10-18T11:15:35.946Z,21.60
2022-10-18T11:18:14.692Z,21.70
2022-10-18T11:20:49.488Z,21.80
2022-10-18T11:23:17.865Z,21.80
2022-10-18T11:26:06.021Z,21.90
2022-10-18T11:28:53.412Z,22.00
2022-10-18T11:31:52.809Z,22.10
2022-10-18T11:34:53.969Z,22.20
2022-10-18T11:37:42.824Z,22.20
2022-10-18T11:40:24.051Z,22.30
2022-10-18T11:43:16.337Z,22.30
2022-10-18T11:46:00.629Z,22.40
2022-10-18T11:48:49.127Z,22.50
2022-10-18T11:51:35.405Z,22.50
2022-10-18T11:54:20.638Z,22.60
2022-10-18T11:56:59.055Z,22.60
2022-10-18T11:59:29.821Z,22.70
2022-10-18T12:02:34.571Z,22.70
2022-10-18T12:08:03.586Z,22.70
2022-10-18T12:10:44.493Z,22.80
2022-10-18T12:13:50.677Z,22.80
2022-10-18T12:16:33.465Z,22.80
2022-10-18T12:19:13.224Z,22.90
2022-10-18T12:21:40.911Z,22.90
2022-10-18T12:24:21.848Z,22.90
2022-10-18T12:26:50.881Z,23.00
2022-10-18T12:29:26.270Z,23.00
2022-10-18T12:32:24.870Z,22.60
2022-10-18T12:35:01.341Z,23.00
2022-10-18T12:37:55.235Z,23.10
2022-10-18T12:40:41.606Z,23.20
2022-10-18T12:43:19.272Z,23.20
2022-10-18T12:45:54.869Z,23.30
2022-10-18T12:48:38.675Z,23.40
2022-10-18T12:51:22.293Z,23.50
2022-10-18T12:54:12.143Z,23.60
2022-10-18T12:56:43.240Z,23.70
2022-10-18T12:59:15.963Z,23.80
2022-10-18T13:01:52.086Z,23.90
2022-10-18T13:04:28.083Z,24.00
2022-10-18T13:06:57.995Z,24.10
2022-10-18T13:09:27.426Z,24.20
2022-10-18T13:12:20.367Z,24.30
2022-10-18T13:15:12.408Z,24.40
2022-10-18T13:17:59.211Z,24.50
2022-10-18T13:20:43.074Z,24.70
2022-10-18T13:23:38.132Z,24.80
2022-10-18T13:26:17.247Z,24.90
2022-10-18T13:29:13.620Z,25.00
2022-10-18T13:31:48.333Z,25.00
2022-10-18T13:34:19.075Z,25.10
2022-10-18T13:37:01.779Z,25.30
2022-10-18T13:39:29.288Z,25.30
2022-10-18T13:41:57.739Z,25.40
2022-10-18T13:44:37.368Z,25.50
2022-10-18T13:47:04.013Z,25.60
2022-10-18T13:49:39.597Z,25.60
2022-10-18T13:52:18.344Z,25.70
2022-10-18T13:55:23.350Z,25.70
2022-10-18T13:58:15.415Z,25.70
2022-10-18T14:01:03.852Z,25.70
2022-10-18T14:03:57.337Z,25.80
2022-10-18T14:06:43.563Z,25.80
2022-10-18T14:12:41.664Z,25.80
2022-10-18T14:15:23.070Z,25.80
2022-10-18T14:17:52.842Z,25.80
2022-10-18T14:20:49.827Z,25.80
2022-10-18T14:23:31.606Z,25.80
2022-10-18T14:26:20.628Z,25.80
2022-10-18T14:29:03.626Z,25.70
2022-10-18T14:31:30.301Z,25.70
2022-10-18T14:33:58.956Z,25.70
2022-10-18T14:36:27.822Z,25.70
2022-10-18T14:39:02.164Z,25.70
2022-10-18T14:41:33.815Z,25.70
2022-10-18T14:44:16.314Z,25.60
2022-10-18T14:46:44.636Z,24.80
2022-10-18T14:49:12.776Z,25.50
2022-10-18T14:51:43.924Z,25.50
2022-10-18T14:54:32.759Z,25.50
2022-10-18T14:57:00.873Z,25.40
2022-10-18T14:59:29.896Z,25.40
2022-10-18T15:02:03.025Z,25.40
2022-10-18T15:04:35.397Z,25.30
2022-10-18T15:07:05.462Z,25.30
2022-10-18T15:09:33.436Z,25.20
2022-10-18T15:12:02.945Z,25.20
2022-10-18T15:14:30.520Z,25.20
2022-10-18T15:17:03.339Z,25.20
2022-10-18T15:19:36.641Z,25.10
2022-10-18T15:22:30.849Z,25.10
2022-10-18T15:25:05.672Z,25.00
2022-10-18T15:27:35.616Z,25.00
2022-10-18T15:30:09.123Z,24.90
2022-10-18T15:32:37.703Z,25.00
2022-10-18T15:35:10.561Z,24.90
2022-10-18T15:37:47.394Z,24.80
2022-10-18T15:40:23.394Z,24.80
2022-10-18T15:42:55.341Z,24.80
2022-10-18T15:45:24.946Z,24.70
2022-10-18T15:48:02.903Z,24.70
2022-10-18T15:50:44.873Z,24.50
2022-10-18T15:53:42.561Z,24.60
2022-10-18T15:56:36.023Z,24.60
2022-10-18T15:59:05.632Z,24.50
2022-10-18T16:01:38.699Z,24.50
2022-10-18T16:04:18.272Z,24.50
2022-10-18T16:06:45.212Z,24.40
2022-10-18T16:09:16.635Z,24.40
2022-10-18T16:11:44.116Z,24.40
2022-10-18T16:14:11.894Z,24.30
2022-10-18T16:16:39.548Z,24.30
2022-10-18T16:19:06.441Z,24.30
2022-10-18T16:21:38.031Z,24.30
2022-10-18T16:24:05.554Z,24.20
2022-10-18T16:26:32.300Z,24.20
2022-10-18T16:28:59.818Z,24.20
2022-10-18T16:31:31.247Z,24.00
2022-10-18T16:34:03.377Z,24.10
2022-10-18T16:36:33.424Z,24.70
2022-10-18T16:39:03.712Z,24.10
2022-10-18T16:41:30.333Z,24.00
2022-10-18T16:43:58.486Z,24.10
2022-10-18T16:46:29.897Z,24.00
2022-10-18T16:48:57.456Z,23.90
2022-10-18T16:51:24.408Z,23.90
2022-10-18T16:53:53.240Z,23.90
2022-10-18T16:56:28.586Z,23.80
2022-10-18T16:58:55.459Z,23.80
2022-10-18T17:01:23.533Z,23.70
2022-10-18T17:03:56.674Z,23.70
2022-10-18T17:06:25.692Z,23.70
2022-10-18T17:08:53.791Z,23.70
2022-10-18T17:11:21.332Z,23.70
2022-10-18T17:13:48.243Z,23.60
2022-10-18T17:16:22.183Z,23.60
2022-10-18T17:18:48.836Z,23.60
2022-10-18T17:21:15.456Z,23.60
2022-10-18T17:23:42.082Z,23.60
2022-10-18T17:26:27.676Z,23.50
2022-10-18T17:28:58.529Z,23.30
2022-10-18T17:31:25.496Z,23.50
2022-10-18T17:33:54.613Z,23.50
2022-10-18T17:36:21.611Z,23.40
2022-10-18T17:38:52.555Z,23.40
2022-10-18T17:41:19.327Z,23.30
2022-10-18T17:43:46.011Z,23.30
2022-10-18T17:46:13.185Z,23.20
2022-10-18T17:48:40.556Z,23.20
2022-10-18T17:51:14.724Z,23.20
2022-10-18T17:53:41.637Z,23.20
2022-10-18T17:56:08.620Z,23.20
2022-10-18T17:58:35.496Z,23.20
2022-10-18T18:01:28.525Z,23.10
2022-10-18T18:03:59.977Z,23.10
2022-10-18T18:06:35.436Z,23.00
2022-10-18T18:09:06.829Z,23.10
2022-10-18T18:11:34.609Z,23.00
2022-10-18T18:14:01.470Z,22.90
2022-10-18T18:16:30.217Z,22.90
2022-10-18T18:18:58.705Z,22.90
2022-10-18T18:21:26.617Z,22.90
2022-10-18T18:23:53.620Z,22.90
2022-10-18T18:26:21.900Z,22.90
2022-10-18T18:28:49.207Z,22.80
2022-10-18T18:31:18.332Z,22.70
2022-10-18T18:33:45.524Z,22.70
2022-10-18T18:36:12.556Z,22.70
2022-10-18T18:38:42.340Z,22.70
2022-10-18T18:41:16.485Z,22.60
2022-10-18T18:43:46.710Z,22.60
2022-10-18T18:46:13.693Z,22.60
2022-10-18T18:48:40.948Z,22.50
2022-10-18T18:51:11.702Z,22.50
2022-10-18T18:53:42.630Z,22.50
2022-10-18T18:56:14.172Z,22.40
2022-10-18T18:58:44.411Z,22.40
2022-10-18T19:01:19.886Z,22.40
2022-10-18T19:03:48.998Z,22.30
2022-10-18T19:06:18.747Z,22.30
2022-10-18T19:08:46.548Z,22.20
2022-10-18T19:11:25.441Z,22.20
2022-10-18T19:13:52.152Z,22.50
2022-10-18T19:16:32.290Z,22.10
2022-10-18T19:18:59.010Z,22.10
2022-10-18T19:21:28.280Z,22.10
2022-10-18T19:26:49.988Z,22.00
2022-10-18T19:29:21.804Z,21.90
2022-10-18T19:31:50.725Z,21.90
2022-10-18T19:34:18.732Z,21.90
2022-10-18T19:36:46.815Z,21.90
2022-10-18T19:39:25.408Z,21.80
2022-10-18T19:41:58.018Z,21.80
2022-10-18T19:44:28.685Z,21.80
2022-10-18T19:46:56.782Z,21.70
2022-10-18T19:49:23.701Z,21.70
2022-10-18T19:51:50.440Z,21.70
2022-10-18T19:54:17.155Z,21.60
2022-10-18T19:56:44.408Z,21.50
2022-10-18T19:59:12.386Z,21.50
2022-10-18T20:01:39.389Z,21.50
2022-10-18T20:04:07.354Z,21.40
2022-10-18T20:06:34.742Z,21.40
2022-10-18T20:09:01.631Z,21.50
2022-10-18T20:11:29.080Z,21.30
2022-10-18T20:13:56.170Z,21.30
2022-10-18T20:16:28.151Z,21.30
2022-10-18T20:19:00.616Z,21.50
2022-10-18T20:21:28.944Z,21.20
2022-10-18T20:23:56.139Z,21.20
2022-10-18T20:26:25.181Z,21.10
2022-10-18T20:28:57.236Z,21.10
2022-10-18T20:31:32.054Z,21.10
2022-10-18T20:34:02.952Z,21.10
2022-10-18T20:36:30.931Z,21.00
2022-10-18T20:38:58.434Z,21.00
2022-10-18T20:41:31.359Z,20.90
2022-10-18T20:44:03.158Z,20.90
2022-10-18T20:46:32.288Z,20.80
2022-10-18T20:48:59.064Z,20.90
2022-10-18T20:51:26.052Z,20.80
2022-10-18T20:53:54.539Z,20.80
2022-10-18T20:56:26.969Z,20.80
2022-10-18T20:58:56.728Z,20.10
2022-10-18T21:01:28.751Z,20.70
2022-10-18T21:04:01.539Z,20.70
2022-10-18T21:06:32.119Z,20.60
2022-10-18T21:09:07.220Z,20.50
2022-10-18T21:11:42.245Z,20.60
2022-10-18T21:14:13.757Z,20.50
2022-10-18T21:16:41.057Z,20.40
2022-10-18T21:19:27.983Z,20.40
2022-10-18T21:21:56.444Z,20.30
2022-10-18T21:24:24.320Z,20.20
2022-10-18T21:26:51.069Z,20.20
2022-10-18T21:29:21.888Z,20.70
2022-10-18T21:31:49.473Z,20.20
2022-10-18T21:34:17.498Z,21.20
2022-10-18T21:36:46.247Z,20.10
2022-10-18T21:39:15.585Z,20.00
2022-10-18T21:41:42.838Z,20.10
2022-10-18T21:44:10.789Z,19.90
2022-10-18T21:46:39.481Z,20.00
2022-10-18T21:49:07.387Z,19.90
2022-10-18T21:51:34.467Z,19.90
2022-10-18T21:54:01.232Z,19.90
2022-10-18T21:56:33.610Z,19.80
2022-10-18T21:59:01.790Z,19.90
2022-10-18T22:01:29.809Z,20.80
2022-10-18T22:03:57.111Z,19.70
2022-10-18T22:06:24.759Z,19.70
2022-10-18T22:08:56.461Z,19.70
2022-10-18T22:11:29.324Z,19.70
2022-10-18T22:13:56.665Z,19.70
2022-10-18T22:16:23.620Z,21.50
2022-10-18T22:18:51.309Z,19.60
2022-10-18T22:21:19.774Z,19.60
2022-10-18T22:23:49.898Z,19.50
2022-10-18T22:26:22.509Z,20.40
2022-10-18T22:29:01.544Z,19.50
2022-10-18T22:31:31.225Z,19.50
2022-10-18T22:34:06.415Z,19.40
2022-10-18T22:36:33.713Z,19.40
2022-10-18T22:39:00.800Z,21.90
2022-10-18T22:41:27.644Z,20.30
2022-10-18T22:43:55.578Z,19.30
2022-10-18T22:46:24.250Z,19.40
2022-10-18T22:48:50.881Z,19.30
2022-10-18T22:51:17.715Z,19.20
2022-10-18T22:53:44.929Z,19.30
2022-10-18T22:56:17.815Z,20.60
2022-10-18T22:58:44.721Z,19.40
2022-10-18T23:01:13.705Z,19.20
2022-10-18T23:03:40.569Z,19.80
2022-10-18T23:06:22.663Z,19.10
2022-10-18T23:08:49.740Z,19.10
2022-10-18T23:11:16.860Z,20.40
2022-10-18T23:13:43.684Z,19.00
2022-10-18T23:16:10.393Z,19.10
2022-10-18T23:18:37.166Z,19.30
2022-10-18T23:21:12.640Z,18.90
2022-10-18T23:23:41.761Z,18.90
2022-10-18T23:26:11.172Z,19.00
2022-10-18T23:28:39.835Z,18.90
2022-10-18T23:31:18.884Z,18.90
2022-10-18T23:33:50.701Z,18.90
2022-10-18T23:36:20.306Z,18.90
2022-10-18T23:38:47.117Z,19.00
2022-10-18T23:41:14.949Z,18.80
2022-10-18T23:43:42.368Z,18.80
2022-10-18T23:46:09.579Z,18.60
2022-10-18T23:48:36.473Z,18.80
2022-10-18T23:51:03.850Z,19.50
2022-10-18T23:53:31.108Z,18.70
2022-10-18T23:56:00.155Z,18.70
2022-10-18T23:58:28.419Z,18.70
